Pagina principală
METAR-TAF:

METAR-TAF

Aeroporturi :

Tocumen, Panama

Latitudine: 09-03N, longitudine: 079-22W, elevație: 45 m

Observații meteo curente

Raportul a fost făcut în urmă cu 45 de minute, la 05:00 UTC
Vânt 6 kt de la Vest
Temperatură 27°C
Umiditate 74%
Presiune 1011 hPa
Vizibilitate de 10 km sau mai mult
Nori puțini la o înălțime de 1800 picior

METAR: MPTO 140500Z 28006KT 9999 FEW018 27/22 Q1011 NOSIG

Ora: 00:45 (05:45 UTC)

Prognoză

Prognoză valabilă de la 14 ora 05 UTC la 15 ora 00 UTC
Vânt 6 kt de la Nord
Vizibilitate de 10 km sau mai mult
Nori împrăștiați la o înălțime de 1800 picior
Temporar
de la 14 ora 06 UTC la 14 ora 10 UTC
Vânt 5 kt de la Vest/Nord-vest
Temporar
de la 14 ora 11 UTC la 14 ora 13 UTC
Vânt 2 kt din direcții variabile
Temporar
de la 14 ora 16 UTC la 14 ora 20 UTC
Vânt 17 kt de la Nord/Nord-vest

TAF: MPTO 140500 1406/1512 36006KT 9999 SCT018 TEMPO 1406/1410 29005KT TEMPO 1411/1413 VRB02KT TEMPO 1416/1420 34017KT

Observații și prognoze meteo pentru peste 4.000 de aeroporturi (rapoarte METAR și TAF).

Stațiile disponibile sunt reprezentate pe hartă prin puncte galbene și roșii.

Țineți indicatorul mouse-ului pe punctul dorit pentru a vedea denumirea stației.

Apoi, faceți clic pentru a vedea observațiile și prognozele meteorologice.

Pentru a schimba harta: Pentru mărire, faceți clic pe butoanele verzi cu cruce neagră; pentru micșorare, pe butonul verde cu o liniuță; pentru hărți învecinate, pe săgețile verzi.


METAR-TAF: